• Join FlightAware (Why Join?)
  • Login
  • US Flag 
07:36AM EDT


 

Airport Tracker/Info


-or-


 

Live Flight TrackerFlight Track Log ✈ N69PK ✈ 29-Jun-2013 ✈ KBFM - KGPM

Flight Track Log - Related Links

Times and Time Zones

All times are in EDT time to prevent confusion due to time zone crossing. See the N69PK flight status page for this flight to view local times or setup timezone preferences in your user account.

Time Position Orientation Groundspeed Altitude Reporting Facility
EDT Latitude Longitude Course Direction KTS MPH feet Rate Location/Type
08:01PM 30.5733 -88.0683 287° West 108 124 2,100  Level Houston Center
08:02PM 30.5542 -88.0967 232° Southwest 111 128 2,900 780 Climbing Houston Center
08:03PM 30.5544 -88.1375 270° West 123 142 3,700 780 Climbing Houston Center
08:04PM 30.5542 -88.1778 270° West 124 143 4,500 780 Climbing Houston Center
08:05PM 30.7045 -88.3559 287° West  Level Estimated
08:05PM 30.5553 -88.2197 272° West 128 147 5,300  Level Houston Center
08:06PM 30.7174 -88.4040 287° West  Level Estimated
08:06PM 30.5561 -88.2600 271° West 127 146 6,100  Level Houston Center
08:07PM 30.5550 -88.3011 268° West 127 146 6,900 780 Climbing Houston Center
08:08PM 30.5556 -88.3522 271° West 130 150 7,800 840 Climbing Houston Center
08:09PM 30.5561 -88.3953 271° West 133 153 8,700 780 Climbing Houston Center
08:10PM 30.5572 -88.4394 272° West 136 157 9,400 600 Climbing Houston Center
08:11PM 30.5567 -88.4836 269° West 137 158 10,000 240 Climbing Houston Center
08:12PM 30.5564 -88.5378 270° West 163 188 10,000  Level Houston Center
08:13PM 30.5572 -88.5925 271° West 169 194 10,000  Level Houston Center
08:14PM 30.5575 -88.6472 270° West 170 196 10,000  Level Houston Center
08:15PM 30.5578 -88.7028 270° West 172 198 10,000  Level Houston Center
08:16PM 30.5589 -88.7567 271° West 169 194 10,000  Level Houston Center
08:17PM 30.5697 -88.8092 283° West 165 190 10,000  Level Houston Center
08:18PM 30.5861 -88.8717 287° West 167 192 10,000  Level Houston Center
08:19PM 30.5994 -88.9244 286° West 169 194 10,000  Level Houston Center
08:20PM 30.6111 -88.9694 287° West 168 193 10,000  Level Houston Center
08:21PM 30.6261 -89.0317 286° West 168 193 10,000  Level Houston Center
08:22PM 30.6386 -89.0831 286° West 167 192 10,000  Level Houston Center
08:23PM 30.6517 -89.1344 286° West 167 192 10,000  Level Houston Center
08:24PM 30.6644 -89.1861 286° West 167 192 10,000  Level Houston Center
08:25PM 30.6775 -89.2378 286° West 167 192 10,000  Level Houston Center
08:26PM 30.6906 -89.2889 287° West 166 191 10,000  Level Houston Center
08:27PM 30.7025 -89.3408 285° West 167 192 10,000  Level Houston Center
08:28PM 30.7169 -89.3939 288° West 171 197 10,000  Level Houston Center
08:29PM 30.7322 -89.4569 286° West 170 196 10,000  Level Houston Center
08:30PM 30.7447 -89.5100 285° West 170 196 10,000  Level Houston Center
08:31PM 30.7572 -89.5619 286° West 169 194 10,000 420 Level Houston Center
08:32PM 30.7683 -89.6075 286° West 152 175 10,900 900 Climbing Houston Center
08:33PM 30.7772 -89.6428 286° West 121 139 11,900 480 Climbing Houston Center
08:35PM 30.7878 -89.6828 287° West 127 146 12,000  Climbing Houston Center
08:36PM 30.7997 -89.7347 285° West 159 183 12,000  Level Houston Center
08:37PM 30.8125 -89.7867 286° West 166 191 12,000  Level Houston Center
08:38PM 30.8272 -89.8489 285° West 167 192 12,000  Level Houston Center
08:39PM 30.8408 -89.9022 287° West 171 197 12,000  Level Houston Center
08:40PM 30.8517 -89.9531 284° West 167 192 12,000  Level Houston Center
08:41PM 30.8667 -90.0056 288° West 168 193 12,000  Level Houston Center
08:42PM 30.8819 -90.0575 289° West 170 196 12,000  Level Houston Center
08:43PM 30.8922 -90.1117 282° West 171 197 12,000  Level Houston Center
08:44PM 30.9031 -90.1667 283° West 173 199 12,000  Level Houston Center
08:45PM 30.9175 -90.2178 288° West 170 196 12,000  Level Houston Center
08:46PM 30.9328 -90.2808 286° West 169 194 12,000  Level Houston Center
08:47PM 30.9450 -90.3344 285° West 170 196 12,000  Level Houston Center
08:48PM 30.9575 -90.3867 286° West 169 194 12,000  Level Houston Center
08:49PM 30.9694 -90.4392 285° West 168 193 12,000 -60 Level Houston Center
08:50PM 30.9814 -90.4925 285° West 170 196 11,900 -60 Descending Houston Center
08:51PM 30.9933 -90.5453 285° West 168 193 11,900  Level Houston Center
08:52PM 31.0058 -90.5975 286° West 168 193 11,900  Level Houston Center
08:53PM 31.0181 -90.6508 285° West 169 194 11,900  Level Houston Center
08:54PM 31.0306 -90.7022 286° West 165 190 11,900  Level Houston Center
08:55PM 31.0444 -90.7642 285° West 165 190 11,900  Level Houston Center
08:56PM 31.0592 -90.8158 288° West 167 192 12,000  Climbing Houston Center
08:57PM 31.0703 -90.8672 284° West 162 186 11,900 -60 Descending Houston Center
08:58PM 31.0817 -90.9181 285° West 162 186 11,900  Level Houston Center
08:59PM 31.0936 -90.9681 286° West 158 182 11,900  Level Houston Center
09:00PM 31.1061 -91.0197 286° West 162 186 11,900  Level Houston Center
09:01PM 31.1169 -91.0697 284° West 158 182 11,900  Level Houston Center
09:02PM 31.1300 -91.1183 287° West 157 181 11,900  Level Houston Center
09:03PM 31.1419 -91.1675 286° West 157 181 11,900  Level Houston Center
09:04PM 31.1508 -91.2183 282° West 159 183 11,900  Level Houston Center
09:05PM 31.1647 -91.2769 285° West 157 181 11,900  Level Houston Center
09:06PM 31.1775 -91.3253 287° West 156 180 11,900  Level Houston Center
09:07PM 31.1883 -91.3742 285° West 156 180 11,900  Level Houston Center
09:08PM 31.1983 -91.4200 284° West 156 180 12,000  Climbing Houston Center
09:09PM 31.2083 -91.4697 283° West 157 181 12,000  Level Houston Center
09:10PM 31.2194 -91.5189 285° West 156 180 12,000  Level Houston Center
09:11PM 31.2325 -91.5767 285° West 154 177 12,000  Level Houston Center
09:12PM 31.2444 -91.6269 286° West 158 182 12,000  Level Houston Center
09:13PM 31.2542 -91.6753 283° West 154 177 12,000  Level Houston Center
09:15PM 31.2661 -91.7350 283° West 155 178 12,000 -180 Level Houston Center
09:15PM 31.2758 -91.7731 287° West 154 177 11,700 -480 Descending Houston Center
09:16PM 31.2883 -91.8269 285° West 167 192 11,200 -540 Descending Houston Center
09:17PM 31.2994 -91.8806 284° West 170 196 10,700 -540 Descending Houston Center
09:18PM 31.3125 -91.9344 286° West 173 199 10,200 -360 Descending Houston Center
09:20PM 31.3275 -92.0072 284° West 169 194 10,000 -120 Descending Houston Center
09:20PM 31.3356 -92.0381 287° West 161 185 10,000  Level Houston Center
09:21PM 31.3453 -92.0861 283° West 153 176 10,000  Level Houston Center
09:22PM 31.3589 -92.1464 285° West 158 182 10,000  Level Houston Center
09:23PM 31.3697 -92.1953 285° West 157 181 10,000  Level Houston Center
09:24PM 31.3800 -92.2433 284° West 154 177 10,000  Level Houston Center
09:26PM 31.3908 -92.2922 285° West 156 180 10,000  Level Houston Center
09:27PM 31.4022 -92.3403 286° West 155 178 10,000  Level Houston Center
09:28PM 31.4119 -92.3903 283° West 158 182 10,000  Level Houston Center
09:29PM 31.4253 -92.4519 284° West 156 180 10,000  Level Houston Center
09:30PM 31.4328 -92.4872 284° West 156 180 10,000  Level Houston Center
09:31PM 31.4447 -92.5364 286° West 158 182 10,000  Level Houston Center
09:32PM 31.4564 -92.5939 283° West 153 176 10,000  Level Houston Center
09:33PM 31.4672 -92.6419 285° West 154 177 10,000  Level Houston Center
09:34PM 31.4767 -92.6883 283° West 150 173 10,000  Level Houston Center
09:35PM 31.4875 -92.7356 285° West 150 173 10,000  Level Houston Center
09:36PM 31.4975 -92.7819 284° West 149 171 10,000  Level Houston Center
09:37PM 31.5072 -92.8278 284° West 146 168 10,000  Level Houston Center
09:38PM 31.5172 -92.8750 284° West 149 171 10,000  Level Houston Center
09:39PM 31.5275 -92.9211 285° West 146 168 10,000  Level Houston Center
09:40PM 31.5369 -92.9667 284° West 145 167 10,000  Level Houston Center
09:41PM 31.5472 -93.0128 285° West 146 168 10,000  Level Houston Center
09:42PM 31.5564 -93.0583 283° West 146 168 10,000  Level Houston Center
09:43PM 31.5661 -93.1033 284° West 144 166 10,000  Level Houston Center
09:44PM 31.5769 -93.1569 283° West 141 162 10,000  Level Houston Center
09:45PM 31.5867 -93.2028 284° West 144 166 10,000  Level Houston Center
09:46PM 31.5969 -93.2483 285° West 145 167 10,000  Level Houston Center
09:47PM 31.6067 -93.2933 284° West 145 167 10,000  Level Houston Center
09:48PM 31.6164 -93.3386 284° West 145 167 10,000  Level Houston Center
09:49PM 31.6253 -93.3847 283° West 146 168 10,000  Level Houston Center
09:50PM 31.6361 -93.4311 285° West 147 169 10,000  Level Houston Center
09:51PM 31.6450 -93.4767 283° West 145 167 10,000  Level Houston Center
09:52PM 31.6547 -93.5211 284° West 145 167 10,000  Level Houston Center
09:53PM 31.6644 -93.5658 284° West 142 163 10,000  Level Houston Center
09:54PM 31.6742 -93.6133 284° West 141 162 10,000  Level Houston Center
09:55PM 31.6842 -93.6589 284° West 143 165 10,000  Level Houston Center
09:56PM 31.6936 -93.7050 284° West 145 167 10,000  Level Houston Center
09:57PM 31.7025 -93.7519 283° West 147 169 10,000  Level Houston Center
09:58PM 31.7125 -93.7964 285° West 144 166 10,000  Level Houston Center
09:59PM 31.7217 -93.8433 283° West 148 170 10,000  Level Houston Center
10:00PM 31.7308 -93.8892 283° West 144 166 10,000  Level Houston Center
10:01PM 31.7433 -93.9461 284° West 150 173 10,000  Level Houston Center
10:02PM 31.7514 -93.9922 282° West 144 166 10,100  Climbing Houston Center
10:03PM 31.7619 -94.0389 285° West 147 169 10,100  Level Houston Center
10:04PM 31.7719 -94.0853 284° West 147 169 10,100  Level Houston Center
10:05PM 31.7808 -94.1336 282° West 151 174 10,100  Level Houston Center
10:06PM 31.7903 -94.1828 283° West 155 178 10,100  Level Houston Center
10:07PM 31.8011 -94.2300 285° West 152 175 10,100  Level Houston Center
10:09PM 31.8208 -94.3281 283° West 146 168 10,100  Level Fort Worth Center
10:10PM 31.8303 -94.3764 283° West 151 174 10,100  Level Fort Worth Center
10:11PM 31.8378 -94.4253 280° West 151 174 10,100  Level Fort Worth Center
10:12PM 31.8492 -94.4736 286° West 151 174 10,100 -60 Level Fort Worth Center
10:13PM 31.8589 -94.5247 283° West 156 180 10,000 -60 Descending Fort Worth Center
10:14PM 31.8703 -94.5733 285° West 161 185 10,000  Level Fort Worth Center
10:15PM 31.8797 -94.6244 282° West 161 185 10,000  Level Fort Worth Center
10:16PM 31.8892 -94.6731 283° West 161 185 10,000  Level Fort Worth Center
10:17PM 31.8986 -94.7217 283° West 161 185 10,000  Level Fort Worth Center
10:18PM 31.9081 -94.7703 283° West 161 185 10,000  Level Fort Worth Center
10:19PM 31.9175 -94.8192 283° West 161 185 10,000  Level Fort Worth Center
10:20PM 31.9267 -94.8678 283° West 161 185 10,000  Level Fort Worth Center
10:21PM 31.9361 -94.9164 283° West 155 178 10,000  Level Fort Worth Center
10:22PM 31.9453 -94.9653 282° West 155 178 10,000  Level Fort Worth Center
10:23PM 31.9567 -95.0161 285° West 150 173 10,000  Level Fort Worth Center
10:24PM 31.9661 -95.0625 284° West 150 173 10,000  Level Fort Worth Center
10:25PM 31.9731 -95.1114 280° West 150 173 10,000  Level Fort Worth Center
10:26PM 31.9844 -95.1625 285° West 150 173 10,000  Level Fort Worth Center
10:27PM 31.9917 -95.2114 280° West 150 173 10,000  Level Fort Worth Center
10:28PM 32.0028 -95.2575 286° West 150 173 10,000  Level Fort Worth Center
10:29PM 32.0119 -95.3064 282° West 155 178 10,000  Level Fort Worth Center
10:30PM 32.0192 -95.3578 279° West 160 184 10,000  Level Fort Worth Center
10:31PM 32.0303 -95.4039 286° West 160 184 10,000  Level Fort Worth Center
10:32PM 32.0394 -95.4553 282° West 160 184 10,000  Level Fort Worth Center
10:33PM 32.0506 -95.5039 285° West 160 184 10,000  Level Fort Worth Center
10:34PM 32.0597 -95.5528 282° West 160 184 10,000  Level Fort Worth Center
10:35PM 32.0689 -95.5992 283° West 160 184 10,000 -120 Level Fort Worth Center
10:36PM 32.0819 -95.6431 289° West 160 184 9,800 -300 Descending Fort Worth Center
10:37PM 32.0889 -95.6994 278° West 166 191 9,500 -360 Descending Fort Worth Center
10:38PM 32.1000 -95.7531 284° West 166 191 9,200 -300 Descending Fort Worth Center
10:39PM 32.1092 -95.8044 282° West 166 191 8,900 -300 Descending Fort Worth Center
10:40PM 32.1183 -95.8606 281° West 166 191 8,600 -300 Descending Fort Worth Center
10:41PM 32.1272 -95.9119 282° West 166 191 8,300 -300 Descending Fort Worth Center
10:42PM 32.1383 -95.9633 284° West 160 184 8,000 -180 Descending Fort Worth Center
10:43PM 32.1472 -96.0147 282° West 166 191 8,000  Level Fort Worth Center
10:44PM 32.1561 -96.0661 282° West 161 185 8,000  Level Fort Worth Center
10:45PM 32.1669 -96.1150 285° West 161 185 8,000  Level Fort Worth Center
10:46PM 32.1758 -96.1664 282° West 161 185 8,000  Level Fort Worth Center
10:47PM 32.1867 -96.2156 285° West 161 185 8,000  Level Fort Worth Center
10:48PM 32.1997 -96.2669 287° West 161 185 8,000  Level Fort Worth Center
10:49PM 32.2106 -96.3183 284° West 161 185 8,000  Level Fort Worth Center
10:50PM 32.2258 -96.3697 289° West 161 185 8,000  Level Fort Worth Center
10:51PM 32.2386 -96.4139 289° West 166 191 8,000  Level Fort Worth Center
10:52PM 32.2536 -96.4700 288° West 166 191 8,000  Level Fort Worth Center
10:53PM 32.2664 -96.5142 289° West 166 191 8,000  Level Fort Worth Center
10:54PM 32.2919 -96.5581 305° West 161 185 8,000 -180 Level Fort Worth Center
10:55PM 32.3192 -96.5897 315° West 156 180 7,700 -480 Descending Fort Worth Center
10:56PM 32.3550 -96.6339 314° West 163 188 7,100 -600 Descending Fort Worth Center
10:57PM 32.3867 -96.6703 316° Northwest 171 197 6,500 -600 Descending Fort Worth Center
10:58PM 32.4244 -96.7144 315° West 171 197 5,900 -600 Descending Fort Worth Center
10:59PM 32.4539 -96.7536 312° West 171 197 5,300 -600 Descending Fort Worth Center
11:00PM 32.4917 -96.7953 317° Northwest 171 197 4,700 -600 Descending Fort Worth Center
11:01PM 32.5211 -96.8294 316° Northwest 166 191 4,100 -360 Descending Fort Worth Center
11:02PM 32.5503 -96.8661 313° West 151 174 4,000 -120 Descending Fort Worth Center